Time;durP1;ratioP1;P1;durP2;ratioP2;P2;SDS_P1;SDS_P2;PMS_P1;PMS_P2;Temp;Humidity;BMP_temperature;BMP_pressure;BME280_temperature;BME280_humidity;BME280_pressure;Samples;Min_cycle;Max_cycle;Signal;HPM_P1;HPM_P2
2023/12/15 00:00:18;;;;;;;12.55;10.48;;;;;;;7.82;100.00;102632.63;5249816;28;20032;-77
2023/12/15 00:02:50;;;;;;;14.98;11.85;;;;;;;7.86;100.00;102642.00;5251616;28;20033;-77
2023/12/15 00:05:22;;;;;;;15.13;11.73;;;;;;;7.88;100.00;102645.41;5251132;28;20048;-77
2023/12/15 00:07:54;;;;;;;14.75;11.65;;;;;;;7.87;100.00;102651.53;5249903;28;20078;-77
2023/12/15 00:10:26;;;;;;;16.02;12.20;;;;;;;7.89;100.00;102654.91;5249253;28;20040;-77
2023/12/15 00:12:58;;;;;;;17.02;13.07;;;;;;;7.82;100.00;102650.03;5251361;28;20036;-77
2023/12/15 00:15:29;;;;;;;14.20;12.43;;;;;;;7.88;100.00;102668.91;5250931;28;20170;-77
2023/12/15 00:18:02;;;;;;;18.77;12.65;;;;;;;7.91;100.00;102666.13;5249913;28;20037;-77
2023/12/15 00:20:34;;;;;;;20.67;14.50;;;;;;;7.99;100.00;102671.88;5250208;28;20028;-77
2023/12/15 00:23:06;;;;;;;17.35;13.93;;;;;;;7.98;100.00;102671.91;5252163;28;20275;-77
2023/12/15 00:25:38;;;;;;;18.17;13.55;;;;;;;7.95;100.00;102677.28;5247872;28;20532;-77
2023/12/15 00:28:09;;;;;;;19.40;14.45;;;;;;;7.94;100.00;102672.97;5250883;28;20425;-77
2023/12/15 00:30:41;;;;;;;17.70;13.57;;;;;;;7.98;100.00;102677.16;5250809;28;20029;-76
2023/12/15 00:33:13;;;;;;;19.10;14.57;;;;;;;7.99;100.00;102671.88;5250892;28;20037;-77
2023/12/15 00:35:46;;;;;;;18.17;14.88;;;;;;;7.96;100.00;102668.56;5249725;28;20067;-76
2023/12/15 00:38:18;;;;;;;20.15;15.00;;;;;;;7.96;100.00;102665.94;5250201;28;20032;-77
2023/12/15 00:40:50;;;;;;;20.08;15.57;;;;;;;7.95;100.00;102665.06;5250039;28;20036;-77
2023/12/15 00:43:22;;;;;;;18.85;14.88;;;;;;;7.98;100.00;102671.91;5250601;28;20037;-77
2023/12/15 00:45:54;;;;;;;21.02;15.90;;;;;;;7.95;100.00;102669.44;5249674;28;20467;-77
2023/12/15 00:48:27;;;;;;;23.05;16.45;;;;;;;7.95;100.00;102670.28;5250813;28;20387;-77
2023/12/15 00:50:59;;;;;;;21.05;16.40;;;;;;;7.99;100.00;102666.66;5249379;28;20060;-76
2023/12/15 00:53:32;;;;;;;22.52;15.95;;;;;;;8.01;100.00;102677.84;5245529;28;20037;-77
2023/12/15 00:56:04;;;;;;;;;;;;;;;8.58;100.00;102674.44;5247078;28;20032;-77
2023/12/15 00:58:36;;;;;;;20.67;15.98;;;;;;;8.03;100.00;102676.03;5245747;28;19917;-77
2023/12/15 01:01:08;;;;;;;21.48;16.70;;;;;;;8.04;100.00;102685.56;5244840;28;20041;-77
2023/12/15 01:03:40;;;;;;;20.77;15.52;;;;;;;8.08;100.00;102686.25;5254246;28;20035;-77
2023/12/15 01:06:11;;;;;;;22.55;17.30;;;;;;;8.00;100.00;102675.31;5253994;28;20494;-77
2023/12/15 01:08:43;;;;;;;20.90;16.17;;;;;;;8.08;100.00;102696.72;5251637;28;20037;-77
2023/12/15 01:11:15;;;;;;;22.33;17.25;;;;;;;8.09;100.00;102695.78;5252494;28;20059;-77
2023/12/15 01:13:47;;;;;;;21.35;17.20;;;;;;;8.10;100.00;102692.25;5254083;28;20043;-76
2023/12/15 01:16:19;;;;;;;23.83;18.00;;;;;;;8.11;100.00;102696.56;5255058;28;20055;-77
2023/12/15 01:18:51;;;;;;;23.00;17.23;;;;;;;8.13;100.00;102704.31;5253198;28;20508;-77
2023/12/15 01:21:23;;;;;;;25.48;18.63;;;;;;;8.13;100.00;102699.94;5253773;28;20402;-77
2023/12/15 01:23:55;;;;;;;23.15;17.80;;;;;;;8.10;100.00;102701.84;5254045;28;20033;-77
2023/12/15 01:26:26;;;;;;;23.20;17.83;;;;;;;7.84;100.00;102714.31;5251867;28;20033;-77
2023/12/15 01:28:58;;;;;;;21.27;17.65;;;;;;;7.74;100.00;102713.84;5253452;28;20031;-77
2023/12/15 01:31:31;;;;;;;21.02;17.80;;;;;;;7.74;100.00;102713.84;5253769;28;20078;-77
2023/12/15 01:34:03;;;;;;;22.70;17.53;;;;;;;7.79;100.00;102716.25;5245501;28;20056;-77
2023/12/15 01:36:37;;;;;;;20.77;17.15;;;;;;;7.78;100.00;102719.78;5244955;28;20041;-77
2023/12/15 01:39:09;;;;;;;21.52;17.00;;;;;;;7.77;100.00;102723.31;5241644;28;20029;-77
2023/12/15 01:41:40;;;;;;;20.63;16.40;;;;;;;7.75;100.00;102715.53;5247188;28;20029;-76
2023/12/15 01:44:12;;;;;;;20.33;16.98;;;;;;;7.75;100.00;102730.34;5245959;28;20444;-77
2023/12/15 01:46:44;;;;;;;18.75;16.58;;;;;;;7.77;100.00;102731.13;5243294;28;20025;-77
2023/12/15 01:49:16;;;;;;;20.50;16.90;;;;;;;7.76;100.00;102717.22;5246849;28;20047;-77
2023/12/15 01:51:48;;;;;;;17.90;16.00;;;;;;;7.80;100.00;102724.03;5226738;28;20039;-77
2023/12/15 01:54:20;;;;;;;19.70;16.45;;;;;;;7.79;100.00;102727.53;5244419;28;20467;-76
2023/12/15 01:56:52;;;;;;;20.35;16.35;;;;;;;7.84;100.00;102732.56;5244178;28;20391;-77
2023/12/15 01:59:24;;;;;;;19.15;16.75;;;;;;;7.83;100.00;102740.44;5243630;28;20128;-77
2023/12/15 02:01:55;;;;;;;21.88;15.93;;;;;;;7.84;100.00;102743.00;5242347;28;20032;-77
2023/12/15 02:04:27;;;;;;;17.88;15.88;;;;;;;7.85;100.00;102743.84;5242691;28;20041;-77
2023/12/15 02:06:59;;;;;;;18.00;15.40;;;;;;;7.86;100.00;102745.53;5244196;28;20043;-77
2023/12/15 02:09:31;;;;;;;18.80;16.42;;;;;;;7.84;100.00;102743.00;5243730;28;20478;-77
2023/12/15 02:12:03;;;;;;;20.30;16.60;;;;;;;7.87;100.00;102747.22;5242878;28;20471;-77
2023/12/15 02:14:35;;;;;;;18.27;16.08;;;;;;;7.87;100.00;102757.66;5244269;28;20037;-76
2023/12/15 02:17:07;;;;;;;19.38;16.02;;;;;;;7.90;100.00;102755.78;5243220;28;20041;-77
2023/12/15 02:19:39;;;;;;;20.75;17.40;;;;;;;7.91;100.00;102743.56;5240930;28;20037;-77
2023/12/15 02:22:11;;;;;;;19.35;17.08;;;;;;;7.90;100.00;102749.72;5240281;28;20033;-76
2023/12/15 02:24:43;;;;;;;20.85;16.98;;;;;;;7.93;100.00;102760.03;5243968;28;20372;-77
2023/12/15 02:27:15;;;;;;;21.40;17.42;;;;;;;7.94;100.00;102762.56;5242914;28;20401;-77
2023/12/15 02:29:47;;;;;;;21.85;17.55;;;;;;;7.94;100.00;102767.78;5244837;28;20040;-77
2023/12/15 02:32:18;;;;;;;21.48;17.10;;;;;;;7.93;100.00;102766.09;5243051;28;20040;-77
2023/12/15 02:34:50;;;;;;;24.42;17.25;;;;;;;7.96;100.00;102773.78;5243121;28;20039;-77
2023/12/15 02:37:22;;;;;;;20.75;17.92;;;;;;;7.94;100.00;102773.00;5242211;28;20036;-77
2023/12/15 02:39:54;;;;;;;22.88;18.58;;;;;;;7.96;100.00;102779.00;5241575;28;20650;-77
2023/12/15 02:42:26;;;;;;;22.65;17.38;;;;;;;7.98;100.00;102785.00;5244090;28;20492;-77
2023/12/15 02:45:00;;;;;;;21.80;17.73;;;;;;;8.02;100.00;102783.94;5241876;28;20488;-77
2023/12/15 02:47:31;;;;;;;20.70;17.42;;;;;;;8.01;100.00;102789.25;5244921;28;20029;-77
2023/12/15 02:50:04;;;;;;;22.38;18.42;;;;;;;7.99;100.00;102783.22;5239805;28;20039;-76
2023/12/15 02:52:35;;;;;;;24.27;18.42;;;;;;;7.99;100.00;102791.06;5243334;28;20029;-77
2023/12/15 02:55:07;;;;;;;22.92;19.40;;;;;;;8.03;100.00;102797.84;5242194;28;20035;-77
2023/12/15 02:57:39;;;;;;;24.58;17.67;;;;;;;7.98;100.00;102784.16;5243621;28;20052;-76
2023/12/15 03:00:12;;;;;;;26.73;20.20;;;;;;;8.01;100.00;102802.31;5243842;28;20938;-77
2023/12/15 03:02:44;;;;;;;26.63;19.03;;;;;;;8.03;100.00;102814.38;5239276;28;20109;-76
2023/12/15 03:05:15;;;;;;;23.75;18.17;;;;;;;8.07;100.00;102820.31;5242563;28;20144;-77
2023/12/15 03:07:47;;;;;;;25.02;18.98;;;;;;;8.09;100.00;102833.31;5240708;28;20029;-77
2023/12/15 03:10:19;;;;;;;25.08;18.30;;;;;;;8.08;100.00;102829.00;5244423;28;20030;-76
2023/12/15 03:12:51;;;;;;;26.65;19.15;;;;;;;8.10;100.00;102829.75;5236826;28;20035;-77
2023/12/15 03:15:23;;;;;;;25.52;19.23;;;;;;;8.11;100.00;102831.50;5242125;28;20041;-77
2023/12/15 03:17:55;;;;;;;26.90;19.10;;;;;;;8.11;100.00;102823.66;5238873;28;20035;-76
2023/12/15 03:20:27;;;;;;;27.23;20.05;;;;;;;8.09;100.00;102836.75;5240479;28;20438;-77
2023/12/15 03:23:00;;;;;;;28.60;20.33;;;;;;;8.10;100.00;102840.22;5242519;28;20028;-77
2023/12/15 03:25:31;;;;;;;27.15;19.95;;;;;;;8.13;100.00;102840.09;5241664;28;20398;-77
2023/12/15 03:28:04;;;;;;;28.70;20.92;;;;;;;8.12;100.00;102854.06;5243977;28;20037;-77
2023/12/15 03:30:36;;;;;;;26.50;20.08;;;;;;;8.12;100.00;102857.50;5243513;28;20483;-76
2023/12/15 03:33:08;;;;;;;27.73;20.08;;;;;;;8.11;100.00;102858.44;5246734;28;20057;-77
2023/12/15 03:35:40;;;;;;;30.73;21.70;;;;;;;8.11;100.00;102868.88;5251067;28;20067;-77
2023/12/15 03:38:12;;;;;;;29.13;21.05;;;;;;;8.13;100.00;102867.03;5248528;28;20111;-77
2023/12/15 03:40:44;;;;;;;32.13;21.75;;;;;;;8.16;100.00;102868.69;5250690;28;20022;-77
2023/12/15 03:43:15;;;;;;;30.52;20.63;;;;;;;8.17;100.00;102866.00;5251539;28;20027;-77
2023/12/15 03:45:47;;;;;;;28.08;21.58;;;;;;;8.19;100.00;102871.16;5249417;28;20037;-76
2023/12/15 03:48:19;;;;;;;32.13;22.23;;;;;;;8.16;100.00;102866.06;5250977;28;20029;-77
2023/12/15 03:50:51;;;;;;;34.42;22.88;;;;;;;8.19;100.00;102874.63;5250817;28;20040;-77
2023/12/15 03:53:23;;;;;;;34.20;22.35;;;;;;;8.22;100.00;102878.84;5251585;28;20036;-77
2023/12/15 03:55:55;;;;;;;32.05;21.02;;;;;;;8.22;100.00;102882.34;5249194;28;20029;-77
2023/12/15 03:58:27;;;;;;;35.25;23.48;;;;;;;8.23;100.00;102877.97;5250865;28;20039;-77
2023/12/15 04:00:59;;;;;;;36.53;22.92;;;;;;;8.23;100.00;102873.56;5249943;28;20037;-77
2023/12/15 04:03:31;;;;;;;37.50;23.95;;;;;;;8.24;100.00;102892.69;5250245;28;20505;-77
2023/12/15 04:06:07;;;;;;;37.53;23.73;;;;;;;8.28;100.00;102891.66;5249488;28;20029;-77
2023/12/15 04:08:41;;;;;;;36.40;24.67;;;;;;;8.27;100.00;102882.13;5250438;28;20034;-77
2023/12/15 04:11:16;;;;;;;37.40;24.95;;;;;;;8.32;100.00;102885.38;5251341;28;20036;-77
2023/12/15 04:13:48;;;;;;;41.78;25.27;;;;;;;8.27;100.00;102900.41;5248731;28;20467;-76
2023/12/15 04:16:20;;;;;;;39.00;25.17;;;;;;;8.28;100.00;102897.72;5250351;28;20040;-77
2023/12/15 04:18:52;;;;;;;42.67;26.10;;;;;;;8.28;100.00;102891.66;5250037;28;20033;-77
2023/12/15 04:21:24;;;;;;;45.03;27.80;;;;;;;8.27;100.00;102884.75;5248463;28;20036;-77
2023/12/15 04:23:55;;;;;;;41.05;26.25;;;;;;;8.34;100.00;102896.63;5249039;28;20185;-77
2023/12/15 04:26:27;;;;;;;46.00;27.88;;;;;;;8.34;100.00;102901.84;5251373;28;20028;-77
2023/12/15 04:28:59;;;;;;;44.08;27.80;;;;;;;8.33;100.00;102901.91;5251271;28;20051;-77
2023/12/15 04:31:31;;;;;;;43.38;27.30;;;;;;;8.32;100.00;102908.88;5249879;28;20491;-77
2023/12/15 04:34:03;;;;;;;46.65;28.42;;;;;;;8.32;100.00;102908.88;5250962;28;20425;-77
2023/12/15 04:36:35;;;;;;;47.38;28.60;;;;;;;8.34;100.00;102914.06;5251692;28;20040;-77
2023/12/15 04:39:07;;;;;;;50.83;29.00;;;;;;;8.35;100.00;102924.44;5248999;28;20050;-77
2023/12/15 04:41:39;;;;;;;46.78;28.13;;;;;;;8.36;100.00;102920.06;5253081;28;20048;-77
2023/12/15 04:44:11;;;;;;;45.70;28.55;;;;;;;8.38;100.00;102921.72;5255418;28;20028;-77
2023/12/15 04:46:43;;;;;;;46.42;27.98;;;;;;;8.38;100.00;102924.34;5252340;28;20031;-77
2023/12/15 04:49:15;;;;;;;49.42;29.55;;;;;;;8.38;100.00;102919.13;5255529;28;20028;-77
2023/12/15 04:51:46;;;;;;;46.05;27.73;;;;;;;8.39;100.00;102926.03;5254362;28;20212;-77
2023/12/15 04:54:18;;;;;;;44.92;28.08;;;;;;;8.40;100.00;102919.88;5250818;28;20035;-77
2023/12/15 04:56:50;;;;;;;44.35;28.67;;;;;;;8.45;100.00;102932.78;5251825;28;20467;-76
2023/12/15 04:59:22;;;;;;;48.45;29.33;;;;;;;8.45;100.00;102938.84;5254196;28;20044;-77
2023/12/15 05:01:54;;;;;;;47.63;28.15;;;;;;;8.46;100.00;102950.97;5254783;28;20040;-76
2023/12/15 05:04:26;;;;;;;44.42;27.90;;;;;;;8.47;100.00;102942.22;5252872;28;20030;-77
2023/12/15 05:06:58;;;;;;;50.85;29.65;;;;;;;8.44;100.00;102937.13;5253628;28;20043;-77
2023/12/15 05:09:30;;;;;;;52.33;30.70;;;;;;;8.49;100.00;102942.19;5254293;28;20029;-77
2023/12/15 05:12:03;;;;;;;50.60;30.08;;;;;;;8.47;100.00;102950.06;5254497;28;20489;-77
2023/12/15 05:14:36;;;;;;;48.08;29.55;;;;;;;8.50;100.00;102942.09;5252026;28;20479;-77
2023/12/15 05:17:08;;;;;;;46.78;29.33;;;;;;;8.50;100.00;102943.88;5252538;28;20040;-77
2023/12/15 05:19:39;;;;;;;52.13;31.30;;;;;;;8.48;100.00;102941.31;5255457;28;20029;-77
2023/12/15 05:22:11;;;;;;;47.13;30.38;;;;;;;8.53;100.00;102943.75;5253652;28;20025;-77
2023/12/15 05:24:43;;;;;;;55.00;30.45;;;;;;;8.52;100.00;102955.09;5251493;28;20037;-77
2023/12/15 05:27:15;;;;;;;53.45;31.10;;;;;;;8.52;100.00;102961.19;5254423;28;20474;-77
2023/12/15 05:29:48;;;;;;;50.92;29.88;;;;;;;8.51;100.00;102969.91;5253588;28;20054;-77
2023/12/15 05:32:20;;;;;;;52.85;31.60;;;;;;;8.54;100.00;102966.34;5249951;28;20060;-77
2023/12/15 05:34:51;;;;;;;58.70;32.00;;;;;;;8.53;100.00;102968.09;5243332;28;20025;-77
2023/12/15 05:37:23;;;;;;;54.70;32.55;;;;;;;8.54;100.00;102971.56;5244544;28;20482;-77
2023/12/15 05:39:57;;;;;;;51.78;33.65;;;;;;;8.55;100.00;102978.47;5244785;28;20390;-77
2023/12/15 05:42:29;;;;;;;52.88;31.75;;;;;;;8.57;100.00;102991.50;5244466;28;20358;-77
2023/12/15 05:45:01;;;;;;;56.38;33.42;;;;;;;8.59;100.00;102989.66;5244051;28;20028;-77
2023/12/15 05:47:32;;;;;;;60.45;33.53;;;;;;;8.59;100.00;103000.09;5246676;28;20022;-77
2023/12/15 05:50:05;;;;;;;59.38;35.22;;;;;;;8.63;100.00;103010.34;5240978;28;20033;-77
2023/12/15 05:52:37;;;;;;;60.38;32.83;;;;;;;8.65;100.00;103010.31;5246533;28;21088;-77
2023/12/15 05:55:09;;;;;;;56.75;33.30;;;;;;;8.61;100.00;103011.34;5244190;28;20039;-77
2023/12/15 05:57:41;;;;;;;56.22;34.17;;;;;;;8.62;100.00;103015.66;5241533;28;20047;-77
2023/12/15 06:00:13;;;;;;;60.90;34.40;;;;;;;8.63;100.00;103007.75;5245858;28;20046;-77
2023/12/15 06:02:45;;;;;;;60.17;33.63;;;;;;;8.67;100.00;102998.00;5245513;28;20040;-77
2023/12/15 06:05:17;;;;;;;54.67;34.50;;;;;;;8.59;100.00;102980.03;5247917;28;20040;-76
2023/12/15 06:07:49;;;;;;;56.38;34.42;;;;;;;8.65;100.00;102986.78;5241453;28;20029;-76
2023/12/15 06:10:20;;;;;;;59.97;33.95;;;;;;;8.65;100.00;102986.78;5244958;28;20167;-77
2023/12/15 06:12:52;;;;;;;58.60;34.95;;;;;;;8.66;100.00;102980.63;5241359;28;20356;-77
2023/12/15 06:15:24;;;;;;;56.90;33.45;;;;;;;8.67;100.00;102987.56;5245113;28;20029;-77
2023/12/15 06:17:56;;;;;;;56.67;33.33;;;;;;;8.65;100.00;102992.00;5244111;28;20033;-77
2023/12/15 06:20:28;;;;;;;59.53;34.60;;;;;;;8.67;100.00;102998.84;5243196;28;20033;-77
2023/12/15 06:23:00;;;;;;;58.95;35.10;;;;;;;8.69;100.00;103002.25;5244793;28;20029;-77
2023/12/15 06:25:32;;;;;;;58.20;35.83;;;;;;;8.70;100.00;103013.56;5241838;28;20570;-77
2023/12/15 06:28:07;;;;;;;61.80;35.17;;;;;;;8.80;100.00;103008.81;5242765;28;20524;-77
2023/12/15 06:30:39;;;;;;;52.83;34.15;;;;;;;8.75;100.00;103008.97;5242169;28;20036;-76
2023/12/15 06:33:11;;;;;;;55.50;35.55;;;;;;;8.73;100.00;103023.91;5242671;28;20041;-77
2023/12/15 06:35:43;;;;;;;61.35;37.38;;;;;;;8.71;100.00;103028.31;5238599;28;20438;-77
2023/12/15 06:38:15;;;;;;;57.03;36.15;;;;;;;8.73;100.00;103035.19;5241677;28;20061;-77
2023/12/15 06:40:47;;;;;;;56.70;35.78;;;;;;;8.75;100.00;103040.34;5245261;28;20029;-77
2023/12/15 06:43:19;;;;;;;63.17;36.28;;;;;;;8.75;100.00;103036.00;5224139;28;20041;-77
2023/12/15 06:45:51;;;;;;;58.78;36.17;;;;;;;8.78;100.00;103042.84;5243803;28;20035;-77
2023/12/15 06:48:23;;;;;;;61.47;36.95;;;;;;;8.78;100.00;103038.44;5238315;28;20047;-76
2023/12/15 06:50:55;;;;;;;61.70;37.75;;;;;;;8.81;100.00;103031.41;5241379;28;20056;-76
2023/12/15 06:53:27;;;;;;;60.33;37.10;;;;;;;8.81;100.00;103042.72;5243383;28;20025;-76
2023/12/15 06:55:59;;;;;;;57.55;37.22;;;;;;;8.80;100.00;103038.41;5241399;28;20501;-76
2023/12/15 06:58:31;;;;;;;60.28;37.25;;;;;;;8.83;100.00;103043.50;5242894;28;20025;-76
2023/12/15 07:01:03;;;;;;;59.70;35.72;;;;;;;8.82;100.00;103043.56;5238295;28;20043;-76
2023/12/15 07:03:35;;;;;;;63.58;35.95;;;;;;;8.83;100.00;103060.97;5241194;28;20036;-76
2023/12/15 07:06:07;;;;;;;59.22;36.08;;;;;;;8.80;100.00;103056.69;5245570;28;20025;-76
2023/12/15 07:08:40;;;;;;;58.20;36.80;;;;;;;8.89;100.00;103071.16;5239571;28;20024;-76
2023/12/15 07:11:12;;;;;;;57.58;36.95;;;;;;;8.89;100.00;103077.22;5242355;28;20045;-76
2023/12/15 07:13:45;;;;;;;57.63;36.20;;;;;;;8.90;100.00;103075.44;5240448;28;20082;-76
2023/12/15 07:16:17;;;;;;;61.92;36.72;;;;;;;8.91;100.00;103080.63;5239414;28;20029;-77
2023/12/15 07:18:49;;;;;;;63.55;37.97;;;;;;;8.89;100.00;103086.81;5216704;28;20395;-77
2023/12/15 07:21:21;;;;;;;60.55;36.10;;;;;;;8.86;100.00;103085.19;5238243;28;20338;-76
2023/12/15 07:23:53;;;;;;;57.35;35.70;;;;;;;8.88;100.00;103091.22;5227837;28;20032;-77
2023/12/15 07:26:24;;;;;;;60.67;36.63;;;;;;;8.88;100.00;103091.22;5239841;28;20034;-77
2023/12/15 07:28:56;;;;;;;68.72;37.60;;;;;;;8.89;100.00;103099.91;5236833;28;20029;-77
2023/12/15 07:31:28;;;;;;;63.55;36.92;;;;;;;8.83;100.00;103098.41;5241847;28;20039;-77
2023/12/15 07:34:00;;;;;;;61.60;37.53;;;;;;;8.91;100.00;103109.38;5242123;28;20044;-77
2023/12/15 07:36:32;;;;;;;60.83;36.17;;;;;;;8.91;100.00;103098.09;5238497;28;20504;-77
2023/12/15 07:39:04;;;;;;;64.82;36.20;;;;;;;8.89;100.00;103099.91;5241746;28;20954;-76
2023/12/15 07:41:42;;;;;;;62.97;35.53;;;;;;;8.94;100.00;103111.88;5238635;28;20037;-77
2023/12/15 07:44:14;;;;;;;57.88;37.00;;;;;;;8.92;100.00;103126.75;5234050;28;20045;-77
2023/12/15 07:46:46;;;;;;;59.67;36.20;;;;;;;8.94;100.00;103124.94;5234532;28;20022;-77
2023/12/15 07:49:18;;;;;;;60.08;36.17;;;;;;;8.92;100.00;103118.06;5240269;28;20033;-77
2023/12/15 07:51:51;;;;;;;58.72;36.20;;;;;;;8.90;100.00;103110.31;5221688;28;20051;-77
2023/12/15 07:54:23;;;;;;;65.68;37.70;;;;;;;8.92;100.00;103110.22;5238362;28;20037;-77
2023/12/15 07:56:55;;;;;;;67.32;35.65;;;;;;;8.92;100.00;103124.16;5235614;28;20033;-77
2023/12/15 07:59:27;;;;;;;62.20;36.13;;;;;;;8.95;100.00;103131.88;5238421;28;20402;-77
2023/12/15 08:02:00;;;;;;;56.17;35.40;;;;;;;8.91;100.00;103121.63;5239019;28;20037;-77
2023/12/15 08:04:32;;;;;;;62.42;35.58;;;;;;;8.94;100.00;103126.69;5237962;28;20091;-77
2023/12/15 08:07:04;;;;;;;56.75;35.28;;;;;;;8.93;100.00;103131.06;5240348;28;20030;-77
2023/12/15 08:09:36;;;;;;;62.58;35.47;;;;;;;8.93;100.00;103138.91;5238268;28;20045;-77
2023/12/15 08:12:08;;;;;;;57.17;35.30;;;;;;;8.91;100.00;103139.91;5243216;28;20031;-77
2023/12/15 08:14:40;;;;;;;60.95;34.70;;;;;;;8.95;100.00;103150.16;5244513;28;20033;-77
2023/12/15 08:17:11;;;;;;;58.67;36.42;;;;;;;8.95;100.00;103150.16;5245513;28;20031;-77
2023/12/15 08:19:44;;;;;;;61.63;35.97;;;;;;;9.02;100.00;103162.09;5242371;28;20043;-76
2023/12/15 08:22:16;;;;;;;54.63;34.42;;;;;;;8.96;100.00;103146.63;5240187;28;20390;-77
2023/12/15 08:24:48;;;;;;;58.70;33.47;;;;;;;8.99;100.00;103166.59;5244055;28;20033;-77
2023/12/15 08:27:21;;;;;;;52.47;33.47;;;;;;;8.99;100.00;103169.19;5244235;28;20040;-77
2023/12/15 08:29:56;;;;;;;58.53;33.33;;;;;;;9.02;100.00;103166.47;5242837;28;20032;-77
2023/12/15 08:32:28;;;;;;;53.38;33.50;;;;;;;9.01;100.00;103177.81;5244113;28;20040;-77
2023/12/15 08:35:00;;;;;;;54.75;34.83;;;;;;;8.99;100.00;103184.88;5244641;28;20033;-77
2023/12/15 08:37:32;;;;;;;57.92;33.92;;;;;;;9.01;100.00;103194.34;5238608;28;20041;-77
2023/12/15 08:40:05;;;;;;;54.58;32.58;;;;;;;9.00;100.00;103191.81;5238896;28;20029;-77
2023/12/15 08:42:36;;;;;;;55.30;33.50;;;;;;;9.12;100.00;103208.75;5239575;28;20036;-77
2023/12/15 08:45:09;;;;;;;58.65;33.40;;;;;;;9.08;100.00;103225.50;5244183;28;20033;-77
2023/12/15 08:47:41;;;;;;;50.80;31.77;;;;;;;9.14;100.00;103222.63;5245616;28;20031;-77
2023/12/15 08:50:13;;;;;;;56.42;32.55;;;;;;;9.11;100.00;103222.75;5235865;28;20037;-77
2023/12/15 08:52:45;;;;;;;51.50;32.13;;;;;;;9.16;100.00;103239.94;5241702;28;20040;-77
2023/12/15 08:55:17;;;;;;;49.47;30.75;;;;;;;9.17;100.00;103244.28;5240309;28;20037;-77
2023/12/15 08:57:49;;;;;;;56.65;33.00;;;;;;;9.20;100.00;103238.06;5243262;28;20033;-77
2023/12/15 09:00:21;;;;;;;48.65;31.35;;;;;;;9.18;100.00;103230.28;5240028;28;20041;-77
2023/12/15 09:02:53;;;;;;;50.45;31.30;;;;;;;9.21;100.00;103239.78;5239331;28;20032;-77
2023/12/15 09:05:25;;;;;;;52.42;30.77;;;;;;;9.22;100.00;103237.09;5239667;28;20329;-76
2023/12/15 09:07:57;;;;;;;50.78;31.13;;;;;;;9.21;100.00;103245.88;5242663;28;20055;-77
2023/12/15 09:10:33;;;;;;;49.55;31.00;;;;;;;9.21;100.00;103235.41;5240255;28;20521;-77
2023/12/15 09:13:05;;;;;;;51.50;31.40;;;;;;;9.23;100.00;103233.56;5238684;28;20044;-77
2023/12/15 09:15:37;;;;;;;43.95;29.27;;;;;;;9.24;100.00;103237.91;5241615;28;20025;-76
2023/12/15 09:18:09;;;;;;;52.72;29.92;;;;;;;9.26;100.00;103240.44;5238583;28;20030;-77
2023/12/15 09:20:40;;;;;;;45.95;29.77;;;;;;;9.27;100.00;103242.13;5242331;28;20053;-77
2023/12/15 09:23:12;;;;;;;48.03;30.88;;;;;;;9.25;100.00;103260.53;5243037;28;20036;-77
2023/12/15 09:25:47;;;;;;;47.63;29.35;;;;;;;9.29;100.00;103266.47;5246910;28;20037;-76
2023/12/15 09:28:19;;;;;;;54.83;30.42;;;;;;;9.25;100.00;103268.38;5240100;28;20036;-76
2023/12/15 09:30:51;;;;;;;51.70;29.88;;;;;;;9.26;100.00;103264.81;5242753;28;20065;-76
2023/12/15 09:33:23;;;;;;;47.00;30.45;;;;;;;9.30;100.00;103270.78;5248135;28;20045;-76
2023/12/15 09:35:56;;;;;;;47.20;30.13;;;;;;;9.35;100.00;103275.81;5249912;28;20039;-77
2023/12/15 09:38:28;;;;;;;52.25;28.90;;;;;;;9.37;100.00;103282.72;5251402;28;20045;-77
2023/12/15 09:41:00;;;;;;;42.97;28.17;;;;;;;9.36;100.00;103290.63;5248646;28;20029;-77
2023/12/15 09:43:31;;;;;;;42.17;28.73;;;;;;;9.38;100.00;103297.47;5246663;28;20036;-76
2023/12/15 09:46:04;;;;;;;44.33;27.35;;;;;;;9.34;100.00;103293.28;5247635;28;20092;-77
2023/12/15 09:48:37;;;;;;;40.25;25.67;;;;;;;9.39;100.00;103299.19;5251492;28;20048;-77
2023/12/15 09:51:19;;;;;;;41.22;26.17;;;;;;;9.57;100.00;103318.53;5252567;28;20059;-77
2023/12/15 09:53:53;;;;;;;39.95;25.75;;;;;;;9.43;100.00;103323.47;5249766;28;20033;-77
2023/12/15 09:56:24;;;;;;;42.58;25.98;;;;;;;9.48;100.00;103329.38;5249723;28;20493;-77
2023/12/15 09:58:56;;;;;;;39.00;24.58;;;;;;;9.47;100.00;103331.16;5249233;28;20036;-77
2023/12/15 10:01:28;;;;;;;41.03;25.17;;;;;;;9.47;100.00;103335.50;5250660;28;20037;-77
2023/12/15 10:04:00;;;;;;;43.58;26.30;;;;;;;9.49;100.00;103331.06;5252962;28;20494;-77
2023/12/15 10:06:34;;;;;;;38.20;25.90;;;;;;;9.52;100.00;103333.56;5250868;28;20070;-77
2023/12/15 10:09:13;;;;;;;37.20;24.30;;;;;;;9.50;100.00;103351.09;5251574;28;20504;-77
2023/12/15 10:11:45;;;;;;;39.00;24.45;;;;;;;9.49;100.00;103347.63;5249772;28;20037;-76
2023/12/15 10:14:19;;;;;;;40.88;25.35;;;;;;;9.50;100.00;103346.69;5250047;28;20407;-77
2023/12/15 10:16:51;;;;;;;34.92;23.35;;;;;;;9.49;100.00;103355.47;5249344;28;20024;-77
2023/12/15 10:19:23;;;;;;;36.10;25.02;;;;;;;9.48;100.00;103358.16;5248316;28;20410;-77
2023/12/15 10:21:55;;;;;;;38.63;24.93;;;;;;;9.56;100.00;103350.84;5249985;28;20032;-77
2023/12/15 10:24:28;;;;;;;35.10;23.85;;;;;;;9.53;100.00;103348.34;5250507;28;20043;-77
2023/12/15 10:27:02;;;;;;;40.07;24.27;;;;;;;9.56;100.00;103360.47;5250117;28;20053;-77
2023/12/15 10:29:38;;;;;;;36.78;23.50;;;;;;;9.70;100.00;103379.94;5250278;28;20505;-76
2023/12/15 10:32:10;;;;;;;37.70;22.95;;;;;;;9.67;100.00;103381.84;5254183;28;20659;-77
2023/12/15 10:34:42;;;;;;;39.33;23.90;;;;;;;9.65;100.00;103373.16;5251908;28;20056;-77
2023/12/15 10:37:14;;;;;;;43.90;24.92;;;;;;;9.69;100.00;103390.44;5251944;28;20044;-76
2023/12/15 10:39:46;;;;;;;33.97;23.20;;;;;;;9.66;100.00;103395.81;5249424;28;20041;-76
2023/12/15 10:42:19;;;;;;;36.92;23.65;;;;;;;9.61;100.00;103384.69;5251016;28;20032;-77
2023/12/15 10:44:51;;;;;;;32.40;21.45;;;;;;;9.65;100.00;103392.34;5248101;28;20033;-77
2023/12/15 10:47:26;;;;;;;35.22;22.25;;;;;;;9.83;100.00;103398.59;5249364;28;20037;-76
2023/12/15 10:49:59;;;;;;;32.17;21.55;;;;;;;9.72;100.00;103403.44;5251555;28;20450;-77
2023/12/15 10:52:33;;;;;;;;;;;;;;;10.33;100.00;103407.91;5252563;28;20021;-77
2023/12/15 10:55:06;;;;;;;35.33;19.88;;;;;;;9.84;100.00;103409.94;5247762;28;19921;-76
2023/12/15 10:57:38;;;;;;;30.80;20.30;;;;;;;9.81;100.00;103418.78;5246744;28;20399;-76
2023/12/15 11:00:10;;;;;;;30.77;20.30;;;;;;;9.79;100.00;103414.50;5251095;28;20020;-76
2023/12/15 11:02:44;;;;;;;28.20;19.50;;;;;;;9.82;100.00;103419.63;5250837;28;20036;-77
2023/12/15 11:05:16;;;;;;;;;;;;;;;10.39;100.00;103432.09;5250877;28;20032;-77
2023/12/15 11:07:49;;;;;;;32.40;19.05;;;;;;;9.87;100.00;103436.00;5250484;28;19920;-77
2023/12/15 11:10:21;;;;;;;31.27;19.90;;;;;;;9.86;100.00;103447.38;5251538;28;20037;-77
2023/12/15 11:12:54;;;;;;;30.63;19.25;;;;;;;9.80;100.00;103438.00;5247770;28;20033;-76
2023/12/15 11:15:27;;;;;;;32.75;19.55;;;;;;;9.82;100.00;103433.56;5249216;28;20059;-77
2023/12/15 11:17:59;;;;;;;28.40;18.92;;;;;;;9.89;100.00;103455.97;5250708;28;20036;-76
2023/12/15 11:20:31;;;;;;;25.27;18.13;;;;;;;9.90;100.00;103443.72;5251784;28;20045;-76
2023/12/15 11:23:11;;;;;;;30.35;18.23;;;;;;;9.98;100.00;103450.34;5251570;28;20044;-76
2023/12/15 11:25:46;;;;;;;28.77;17.15;;;;;;;9.95;100.00;103463.56;5249004;28;20028;-77
2023/12/15 11:28:20;;;;;;;24.23;16.13;;;;;;;9.88;100.00;103456.00;5248940;28;20107;-77
2023/12/15 11:30:52;;;;;;;31.05;16.10;;;;;;;9.90;100.00;103456.81;5250970;28;20032;-76